PWSweather.com
Personal Weather Stations
Station Observations
KJ4AJP
Beautiful Downtown Gardner, Martin, TN 38237

Beautiful Downtown GardnerMartin, TN 38237

Lat: 36.358, Lon: -88.8994

Elevation: 384.3

Station Type: TP1080WC

http://weather.mambm.com/

High Low Average
Temperature 44.1°F6.7°C 15.1°F-9.4°C 31.3°F-0.4°C
Dew Point 32.3°F0.2°C 13.2°F-10.4°C 24.5°F-4.2°C
Winds 8.3 mph 13.4 kmh Calm Calm 4.0 mph S6.4 kmh S
Wind Gusts 15.9 mph25.6 kmh 3.8 mph6.1 kmh 10.0 mph16.1 kmh
Humidity 95% 62% 77%
Pressure 30.29 in1025.7 mb 30.09 in1019.0 mb -
Precipitation 0.00 in0.0 mm - -
Hour Temp Dew Point Humidity Winds Wind Gusts Pressure Precip Precip Rate Daily Precip Total
12:00 AM 17.6°F-8.0°C 14.4°F-9.8°C 87% 0.7 mph S1.1 kmh S 2.2 mph3.5 kmh 30.30 in1026.1 mb 0.00 in0.0 mm 0.00 in0.0 mm 0.00 in0.0 mm
12:15 AM 17.6°F-8.0°C 14.4°F-9.8°C 87% 3.1 mph S5.0 kmh S 5.4 mph8.7 kmh 30.30 in1026.1 mb 0.00 in0.0 mm 0.00 in0.0 mm 0.00 in0.0 mm
12:30 AM 17.2°F-8.2°C 14.1°F-9.9°C 87% 2.2 mph S3.5 kmh S 5.4 mph8.7 kmh 30.29 in1025.7 mb 0.00 in0.0 mm 0.00 in0.0 mm 0.00 in0.0 mm
12:45 AM 17.1°F-8.3°C 13.9°F-10.1°C 87% 2.2 mph S3.5 kmh S 6.0 mph9.7 kmh 30.29 in1025.7 mb 0.00 in0.0 mm 0.00 in0.0 mm 0.00 in0.0 mm
01:00 AM 16.7°F-8.5°C 13.6°F-10.2°C 87% 2.2 mph S3.5 kmh S 6.0 mph9.7 kmh 30.29 in1025.7 mb 0.00 in0.0 mm 0.00 in0.0 mm 0.00 in0.0 mm
01:15 AM 16.9°F-8.4°C 14.0°F-10.0°C 88% 3.1 mph S5.0 kmh S 6.9 mph11.1 kmh 30.28 in1025.4 mb 0.00 in0.0 mm 0.00 in0.0 mm 0.00 in0.0 mm
01:30 AM 17.4°F-8.1°C 14.5°F-9.7°C 88% 3.1 mph S5.0 kmh S 6.0 mph9.7 kmh 30.27 in1025.1 mb 0.00 in0.0 mm 0.00 in0.0 mm 0.00 in0.0 mm
01:45 AM 17.6°F-8.0°C 14.7°F-9.6°C 88% 3.8 mph S6.1 kmh S 5.4 mph8.7 kmh 30.27 in1025.1 mb 0.00 in0.0 mm 0.00 in0.0 mm 0.00 in0.0 mm
02:00 AM 18.0°F-7.8°C 14.8°F-9.6°C 87% 2.2 mph S3.5 kmh S 6.9 mph11.1 kmh 30.26 in1024.7 mb 0.00 in0.0 mm 0.00 in0.0 mm 0.00 in0.0 mm
02:15 AM 17.8°F-7.9°C 14.6°F-9.7°C 87% 3.1 mph S5.0 kmh S 5.4 mph8.7 kmh 30.27 in1025.1 mb 0.00 in0.0 mm 0.00 in0.0 mm 0.00 in0.0 mm
02:30 AM 17.2°F-8.2°C 14.1°F-9.9°C 87% 3.8 mph S6.1 kmh S 6.9 mph11.1 kmh 30.26 in1024.7 mb 0.00 in0.0 mm 0.00 in0.0 mm 0.00 in0.0 mm
02:45 AM 17.1°F-8.3°C 14.2°F-9.9°C 88% 3.8 mph S6.1 kmh S 5.4 mph8.7 kmh 30.26 in1024.7 mb 0.00 in0.0 mm 0.00 in0.0 mm 0.00 in0.0 mm
03:00 AM 17.1°F-8.3°C 14.2°F-9.9°C 88% 2.2 mph S3.5 kmh S 6.0 mph9.7 kmh 30.26 in1024.7 mb 0.00 in0.0 mm 0.00 in0.0 mm 0.00 in0.0 mm
03:15 AM 16.9°F-8.4°C 14.0°F-10.0°C 88% 3.1 mph S5.0 kmh S 6.0 mph9.7 kmh 30.26 in1024.7 mb 0.00 in0.0 mm 0.00 in0.0 mm 0.00 in0.0 mm
03:30 AM 16.7°F-8.5°C 14.1°F-9.9°C 89% 3.8 mph S6.1 kmh S 7.6 mph12.2 kmh 30.26 in1024.7 mb 0.00 in0.0 mm 0.00 in0.0 mm 0.00 in0.0 mm
03:45 AM 16.7°F-8.5°C 14.1°F-9.9°C 89% Calm Calm 5.4 mph8.7 kmh 30.26 in1024.7 mb 0.00 in0.0 mm 0.00 in0.0 mm 0.00 in0.0 mm
04:00 AM 16.5°F-8.6°C 13.9°F-10.1°C 89% 0.7 mph S1.1 kmh S 4.5 mph7.2 kmh 30.26 in1024.7 mb 0.00 in0.0 mm 0.00 in0.0 mm 0.00 in0.0 mm
04:15 AM 16.2°F-8.8°C 13.5°F-10.3°C 89% 3.1 mph S5.0 kmh S 5.4 mph8.7 kmh 30.25 in1024.4 mb 0.00 in0.0 mm 0.00 in0.0 mm 0.00 in0.0 mm
04:30 AM 15.8°F-9.0°C 13.4°F-10.3°C 90% 2.2 mph S3.5 kmh S 6.0 mph9.7 kmh 30.25 in1024.4 mb 0.00 in0.0 mm 0.00 in0.0 mm 0.00 in0.0 mm
04:45 AM 16.0°F-8.9°C 13.6°F-10.2°C 90% 5.4 mph S8.7 kmh S 6.0 mph9.7 kmh 30.25 in1024.4 mb 0.00 in0.0 mm 0.00 in0.0 mm 0.00 in0.0 mm
05:00 AM 16.5°F-8.6°C 14.4°F-9.8°C 91% 4.5 mph S7.2 kmh S 6.0 mph9.7 kmh 30.24 in1024.0 mb 0.00 in0.0 mm 0.00 in0.0 mm 0.00 in0.0 mm
05:15 AM 16.5°F-8.6°C 14.4°F-9.8°C 91% 3.1 mph S5.0 kmh S 6.9 mph11.1 kmh 30.24 in1024.0 mb 0.00 in0.0 mm 0.00 in0.0 mm 0.00 in0.0 mm
05:30 AM 16.0°F-8.9°C 13.6°F-10.2°C 90% Calm Calm 4.5 mph7.2 kmh 30.24 in1024.0 mb 0.00 in0.0 mm 0.00 in0.0 mm 0.00 in0.0 mm
05:45 AM 16.2°F-8.8°C 14.0°F-10.0°C 91% 0.7 mph SE1.1 kmh SE 3.8 mph6.1 kmh 30.24 in1024.0 mb 0.00 in0.0 mm 0.00 in0.0 mm 0.00 in0.0 mm
06:00 AM 15.4°F-9.2°C 13.3°F-10.4°C 91% 1.6 mph S2.6 kmh S 3.8 mph6.1 kmh 30.24 in1024.0 mb 0.00 in0.0 mm 0.00 in0.0 mm 0.00 in0.0 mm
06:15 AM 15.3°F-9.3°C 13.2°F-10.4°C 91% 3.1 mph S5.0 kmh S 5.4 mph8.7 kmh 30.24 in1024.0 mb 0.00 in0.0 mm 0.00 in0.0 mm 0.00 in0.0 mm
06:30 AM 15.1°F-9.4°C 13.2°F-10.4°C 92% 3.1 mph S5.0 kmh S 5.4 mph8.7 kmh 30.25 in1024.4 mb 0.00 in0.0 mm 0.00 in0.0 mm 0.00 in0.0 mm
06:45 AM 15.1°F-9.4°C 13.2°F-10.4°C 92% 2.2 mph S3.5 kmh S 6.0 mph9.7 kmh 30.25 in1024.4 mb 0.00 in0.0 mm 0.00 in0.0 mm 0.00 in0.0 mm
07:00 AM 15.4°F-9.2°C 13.8°F-10.1°C 93% 1.6 mph SSE2.6 kmh SSE 5.4 mph8.7 kmh 30.24 in1024.0 mb 0.00 in0.0 mm 0.00 in0.0 mm 0.00 in0.0 mm
07:15 AM 15.8°F-9.0°C 14.4°F-9.8°C 94% 1.6 mph SSE2.6 kmh SSE 4.5 mph7.2 kmh 30.24 in1024.0 mb 0.00 in0.0 mm 0.00 in0.0 mm 0.00 in0.0 mm
07:30 AM 16.2°F-8.8°C 14.8°F-9.6°C 94% 1.6 mph SSE2.6 kmh SSE 5.4 mph8.7 kmh 30.24 in1024.0 mb 0.00 in0.0 mm 0.00 in0.0 mm 0.00 in0.0 mm
07:45 AM 16.2°F-8.8°C 14.8°F-9.6°C 94% 1.6 mph SSE2.6 kmh SSE 4.5 mph7.2 kmh 30.24 in1024.0 mb 0.00 in0.0 mm 0.00 in0.0 mm 0.00 in0.0 mm
08:00 AM 16.3°F-8.7°C 15.0°F-9.4°C 94% 1.6 mph S2.6 kmh S 4.5 mph7.2 kmh 30.24 in1024.0 mb 0.00 in0.0 mm 0.00 in0.0 mm 0.00 in0.0 mm
08:15 AM 16.5°F-8.6°C 15.1°F-9.4°C 94% 1.6 mph SSE2.6 kmh SSE 5.4 mph8.7 kmh 30.24 in1024.0 mb 0.00 in0.0 mm 0.00 in0.0 mm 0.00 in0.0 mm
08:30 AM 17.1°F-8.3°C 15.7°F-9.1°C 94% 1.6 mph SSE2.6 kmh SSE 5.4 mph8.7 kmh 30.25 in1024.4 mb 0.00 in0.0 mm 0.00 in0.0 mm 0.00 in0.0 mm
08:45 AM 17.8°F-7.9°C 16.4°F-8.7°C 94% 2.2 mph SSE3.5 kmh SSE 4.5 mph7.2 kmh 30.25 in1024.4 mb 0.00 in0.0 mm 0.00 in0.0 mm 0.00 in0.0 mm
09:00 AM 19.9°F-6.7°C 18.8°F-7.3°C 95% 2.2 mph SSE3.5 kmh SSE 6.0 mph9.7 kmh 30.24 in1024.0 mb 0.00 in0.0 mm 0.00 in0.0 mm 0.00 in0.0 mm
09:15 AM 23.2°F-4.9°C 21.5°F-5.8°C 93% 3.1 mph S5.0 kmh S 8.3 mph13.4 kmh 30.25 in1024.4 mb 0.00 in0.0 mm 0.00 in0.0 mm 0.00 in0.0 mm
09:30 AM 25.3°F-3.7°C 22.8°F-5.1°C 90% 3.1 mph S5.0 kmh S 9.2 mph14.8 kmh 30.25 in1024.4 mb 0.00 in0.0 mm 0.00 in0.0 mm 0.00 in0.0 mm
09:45 AM 27.0°F-2.8°C 23.9°F-4.5°C 88% 5.4 mph SSW8.7 kmh SSW 10.7 mph17.2 kmh 30.25 in1024.4 mb 0.00 in0.0 mm 0.00 in0.0 mm 0.00 in0.0 mm
10:00 AM 28.6°F-1.9°C 24.7°F-4.1°C 85% 3.1 mph SSE5.0 kmh SSE 10.7 mph17.2 kmh 30.24 in1024.0 mb 0.00 in0.0 mm 0.00 in0.0 mm 0.00 in0.0 mm
10:15 AM 29.8°F-1.2°C 25.3°F-3.7°C 83% 5.4 mph S8.7 kmh S 12.1 mph19.5 kmh 30.25 in1024.4 mb 0.00 in0.0 mm 0.00 in0.0 mm 0.00 in0.0 mm
10:30 AM 31.1°F-0.5°C 26.0°F-3.3°C 81% 4.5 mph S7.2 kmh S 12.1 mph19.5 kmh 30.25 in1024.4 mb 0.00 in0.0 mm 0.00 in0.0 mm 0.00 in0.0 mm
10:45 AM 32.2°F0.1°C 26.7°F-2.9°C 80% 4.5 mph S7.2 kmh S 10.7 mph17.2 kmh 30.25 in1024.4 mb 0.00 in0.0 mm 0.00 in0.0 mm 0.00 in0.0 mm
11:00 AM 33.3°F0.7°C 27.2°F-2.7°C 78% 3.8 mph S6.1 kmh S 9.8 mph15.8 kmh 30.25 in1024.4 mb 0.00 in0.0 mm 0.00 in0.0 mm 0.00 in0.0 mm
11:15 AM 34.9°F1.6°C 28.4°F-2.0°C 77% 2.2 mph S3.5 kmh S 9.8 mph15.8 kmh 30.25 in1024.4 mb 0.00 in0.0 mm 0.00 in0.0 mm 0.00 in0.0 mm
11:30 AM 36.1°F2.3°C 29.0°F-1.7°C 75% 2.2 mph S3.5 kmh S 8.3 mph13.4 kmh 30.25 in1024.4 mb 0.00 in0.0 mm 0.00 in0.0 mm 0.00 in0.0 mm
11:45 AM 37.8°F3.2°C 29.9°F-1.2°C 73% 3.8 mph S6.1 kmh S 9.8 mph15.8 kmh 30.24 in1024.0 mb 0.00 in0.0 mm 0.00 in0.0 mm 0.00 in0.0 mm
12:00 PM 38.3°F3.5°C 29.7°F-1.3°C 71% 2.2 mph S3.5 kmh S 9.2 mph14.8 kmh 30.24 in1024.0 mb 0.00 in0.0 mm 0.00 in0.0 mm 0.00 in0.0 mm
12:15 PM 38.7°F3.7°C 30.1°F-1.1°C 71% 5.4 mph S8.7 kmh S 10.7 mph17.2 kmh 30.23 in1023.7 mb 0.00 in0.0 mm 0.00 in0.0 mm 0.00 in0.0 mm
12:30 PM 39.2°F4.0°C 30.3°F-0.9°C 70% 1.6 mph S2.6 kmh S 10.7 mph17.2 kmh 30.23 in1023.7 mb 0.00 in0.0 mm 0.00 in0.0 mm 0.00 in0.0 mm
12:45 PM 39.6°F4.2°C 30.2°F-1.0°C 69% 5.4 mph S8.7 kmh S 9.8 mph15.8 kmh 30.21 in1023.0 mb 0.00 in0.0 mm 0.00 in0.0 mm 0.00 in0.0 mm
01:00 PM 40.3°F4.6°C 30.9°F-0.6°C 69% 2.2 mph S3.5 kmh S 9.2 mph14.8 kmh 30.21 in1023.0 mb 0.00 in0.0 mm 0.00 in0.0 mm 0.00 in0.0 mm
01:15 PM 41.4°F5.2°C 31.2°F-0.4°C 67% 3.1 mph SW5.0 kmh SW 10.7 mph17.2 kmh 30.20 in1022.7 mb 0.00 in0.0 mm 0.00 in0.0 mm 0.00 in0.0 mm
01:30 PM 42.4°F5.8°C 32.3°F0.2°C 67% 3.8 mph S6.1 kmh S 13.0 mph20.9 kmh 30.19 in1022.4 mb 0.00 in0.0 mm 0.00 in0.0 mm 0.00 in0.0 mm
01:45 PM 43.0°F6.1°C 32.0°F0.0°C 65% 5.4 mph S8.7 kmh S 10.7 mph17.2 kmh 30.18 in1022.0 mb 0.00 in0.0 mm 0.00 in0.0 mm 0.00 in0.0 mm
02:00 PM 43.3°F6.3°C 32.0°F0.0°C 64% 5.4 mph S8.7 kmh S 12.1 mph19.5 kmh 30.17 in1021.7 mb 0.00 in0.0 mm 0.00 in0.0 mm 0.00 in0.0 mm
02:15 PM 43.0°F6.1°C 31.3°F-0.4°C 63% 7.6 mph S12.2 kmh S 12.1 mph19.5 kmh 30.16 in1021.3 mb 0.00 in0.0 mm 0.00 in0.0 mm 0.00 in0.0 mm
02:30 PM 43.2°F6.2°C 31.8°F-0.1°C 64% 6.0 mph S9.7 kmh S 12.1 mph19.5 kmh 30.15 in1021.0 mb 0.00 in0.0 mm 0.00 in0.0 mm 0.00 in0.0 mm
02:45 PM 43.7°F6.5°C 31.9°F-0.1°C 63% 6.9 mph S11.1 kmh S 13.0 mph20.9 kmh 30.15 in1021.0 mb 0.00 in0.0 mm 0.00 in0.0 mm 0.00 in0.0 mm
03:00 PM 43.7°F6.5°C 31.9°F-0.1°C 63% 3.8 mph S6.1 kmh S 13.0 mph20.9 kmh 30.14 in1020.7 mb 0.00 in0.0 mm 0.00 in0.0 mm 0.00 in0.0 mm
03:15 PM 44.1°F6.7°C 31.9°F-0.1°C 62% 7.6 mph S12.2 kmh S 12.1 mph19.5 kmh 30.14 in1020.7 mb 0.00 in0.0 mm 0.00 in0.0 mm 0.00 in0.0 mm
03:30 PM 44.1°F6.7°C 31.9°F-0.1°C 62% 4.5 mph S7.2 kmh S 12.1 mph19.5 kmh 30.13 in1020.3 mb 0.00 in0.0 mm 0.00 in0.0 mm 0.00 in0.0 mm
03:45 PM 42.6°F5.9°C 30.9°F-0.6°C 63% 3.8 mph S6.1 kmh S 14.5 mph23.3 kmh 30.12 in1020.0 mb 0.00 in0.0 mm 0.00 in0.0 mm 0.00 in0.0 mm
04:00 PM 42.1°F5.6°C 31.2°F-0.4°C 65% 5.4 mph S8.7 kmh S 10.7 mph17.2 kmh 30.13 in1020.3 mb 0.00 in0.0 mm 0.00 in0.0 mm 0.00 in0.0 mm
04:15 PM 41.9°F5.5°C 31.0°F-0.6°C 65% 5.4 mph S8.7 kmh S 14.5 mph23.3 kmh 30.12 in1020.0 mb 0.00 in0.0 mm 0.00 in0.0 mm 0.00 in0.0 mm
04:30 PM 41.5°F5.3°C 31.0°F-0.6°C 66% 6.0 mph S9.7 kmh S 11.4 mph18.3 kmh 30.12 in1020.0 mb 0.00 in0.0 mm 0.00 in0.0 mm 0.00 in0.0 mm
04:45 PM 41.5°F5.3°C 30.7°F-0.7°C 65% 6.0 mph S9.7 kmh S 10.7 mph17.2 kmh 30.11 in1019.6 mb 0.00 in0.0 mm 0.00 in0.0 mm 0.00 in0.0 mm
05:00 PM 41.9°F5.5°C 31.0°F-0.6°C 65% 4.5 mph S7.2 kmh S 15.2 mph24.5 kmh 30.12 in1020.0 mb 0.00 in0.0 mm 0.00 in0.0 mm 0.00 in0.0 mm
05:15 PM 41.5°F5.3°C 31.0°F-0.6°C 66% 4.5 mph S7.2 kmh S 12.1 mph19.5 kmh 30.11 in1019.6 mb 0.00 in0.0 mm 0.00 in0.0 mm 0.00 in0.0 mm
05:30 PM 41.4°F5.2°C 31.2°F-0.4°C 67% 6.0 mph S9.7 kmh S 11.4 mph18.3 kmh 30.11 in1019.6 mb 0.00 in0.0 mm 0.00 in0.0 mm 0.00 in0.0 mm
05:45 PM 41.2°F5.1°C 31.1°F-0.5°C 67% 4.5 mph S7.2 kmh S 11.4 mph18.3 kmh 30.11 in1019.6 mb 0.00 in0.0 mm 0.00 in0.0 mm 0.00 in0.0 mm
06:00 PM 40.5°F4.7°C 30.7°F-0.7°C 68% 4.5 mph S7.2 kmh S 10.7 mph17.2 kmh 30.11 in1019.6 mb 0.00 in0.0 mm 0.00 in0.0 mm 0.00 in0.0 mm
06:15 PM 39.9°F4.4°C 30.6°F-0.8°C 69% 3.8 mph S6.1 kmh S 13.0 mph20.9 kmh 30.11 in1019.6 mb 0.00 in0.0 mm 0.00 in0.0 mm 0.00 in0.0 mm
06:30 PM 39.4°F4.1°C 30.4°F-0.9°C 70% 5.4 mph S8.7 kmh S 12.1 mph19.5 kmh 30.11 in1019.6 mb 0.00 in0.0 mm 0.00 in0.0 mm 0.00 in0.0 mm
06:45 PM 39.2°F4.0°C 30.6°F-0.8°C 71% 3.8 mph S6.1 kmh S 9.8 mph15.8 kmh 30.10 in1019.3 mb 0.00 in0.0 mm 0.00 in0.0 mm 0.00 in0.0 mm
07:00 PM 39.6°F4.2°C 30.6°F-0.8°C 70% 3.1 mph S5.0 kmh S 13.6 mph21.9 kmh 30.10 in1019.3 mb 0.00 in0.0 mm 0.00 in0.0 mm 0.00 in0.0 mm
07:15 PM 39.7°F4.3°C 30.8°F-0.7°C 70% 3.1 mph S5.0 kmh S 13.0 mph20.9 kmh 30.11 in1019.6 mb 0.00 in0.0 mm 0.00 in0.0 mm 0.00 in0.0 mm
07:30 PM 39.9°F4.4°C 30.9°F-0.6°C 70% 6.0 mph S9.7 kmh S 10.7 mph17.2 kmh 30.10 in1019.3 mb 0.00 in0.0 mm 0.00 in0.0 mm 0.00 in0.0 mm
07:45 PM 40.1°F4.5°C 30.8°F-0.7°C 69% 5.4 mph S8.7 kmh S 15.9 mph25.6 kmh 30.11 in1019.6 mb 0.00 in0.0 mm 0.00 in0.0 mm 0.00 in0.0 mm
08:00 PM 40.1°F4.5°C 30.4°F-0.9°C 68% 6.9 mph S11.1 kmh S 14.5 mph23.3 kmh 30.10 in1019.3 mb 0.00 in0.0 mm 0.00 in0.0 mm 0.00 in0.0 mm
08:15 PM 40.3°F4.6°C 30.2°F-1.0°C 67% 6.9 mph S11.1 kmh S 12.1 mph19.5 kmh 30.10 in1019.3 mb 0.00 in0.0 mm 0.00 in0.0 mm 0.00 in0.0 mm
08:30 PM 40.1°F4.5°C 30.0°F-1.1°C 67% 4.5 mph S7.2 kmh S 15.9 mph25.6 kmh 30.10 in1019.3 mb 0.00 in0.0 mm 0.00 in0.0 mm 0.00 in0.0 mm
08:45 PM 39.9°F4.4°C 29.9°F-1.2°C 67% 8.3 mph S13.4 kmh S 12.1 mph19.5 kmh 30.10 in1019.3 mb 0.00 in0.0 mm 0.00 in0.0 mm 0.00 in0.0 mm
09:00 PM 40.1°F4.5°C 29.7°F-1.3°C 66% 6.9 mph S11.1 kmh S 15.9 mph25.6 kmh 30.09 in1019.0 mb 0.00 in0.0 mm 0.00 in0.0 mm 0.00 in0.0 mm
09:15 PM 39.9°F4.4°C 30.2°F-1.0°C 68% 5.4 mph S8.7 kmh S 13.0 mph20.9 kmh 30.09 in1019.0 mb 0.00 in0.0 mm 0.00 in0.0 mm 0.00 in0.0 mm
09:30 PM 39.7°F4.3°C 30.1°F-1.1°C 68% 6.9 mph S11.1 kmh S 10.7 mph17.2 kmh 30.10 in1019.3 mb 0.00 in0.0 mm 0.00 in0.0 mm 0.00 in0.0 mm
09:45 PM 39.6°F4.2°C 30.2°F-1.0°C 69% 6.0 mph S9.7 kmh S 10.7 mph17.2 kmh 30.10 in1019.3 mb 0.00 in0.0 mm 0.00 in0.0 mm 0.00 in0.0 mm
10:00 PM 39.4°F4.1°C 29.7°F-1.3°C 68% 6.0 mph S9.7 kmh S 9.8 mph15.8 kmh 30.10 in1019.3 mb 0.00 in0.0 mm 0.00 in0.0 mm 0.00 in0.0 mm
10:15 PM 39.4°F4.1°C 29.7°F-1.3°C 68% 6.9 mph S11.1 kmh S 12.1 mph19.5 kmh 30.10 in1019.3 mb 0.00 in0.0 mm 0.00 in0.0 mm 0.00 in0.0 mm
10:30 PM 39.4°F4.1°C 29.7°F-1.3°C 68% 2.2 mph SSW3.5 kmh SSW 9.2 mph14.8 kmh 30.11 in1019.6 mb 0.00 in0.0 mm 0.00 in0.0 mm 0.00 in0.0 mm
10:45 PM 39.4°F4.1°C 29.7°F-1.3°C 68% 4.5 mph SSW7.2 kmh SSW 10.7 mph17.2 kmh 30.11 in1019.6 mb 0.00 in0.0 mm 0.00 in0.0 mm 0.00 in0.0 mm
11:00 PM 39.2°F4.0°C 29.9°F-1.2°C 69% 2.2 mph S3.5 kmh S 9.2 mph14.8 kmh 30.11 in1019.6 mb 0.00 in0.0 mm 0.00 in0.0 mm 0.00 in0.0 mm
11:15 PM 39.0°F3.9°C 30.1°F-1.1°C 70% 2.2 mph S3.5 kmh S 9.2 mph14.8 kmh 30.11 in1019.6 mb 0.00 in0.0 mm 0.00 in0.0 mm 0.00 in0.0 mm
11:30 PM 39.2°F4.0°C 29.9°F-1.2°C 69% 3.8 mph S6.1 kmh S 15.9 mph25.6 kmh 30.11 in1019.6 mb 0.00 in0.0 mm 0.00 in0.0 mm 0.00 in0.0 mm
11:45 PM 39.4°F4.1°C 29.7°F-1.3°C 68% 3.8 mph S6.1 kmh S 14.5 mph23.3 kmh 30.11 in1019.6 mb 0.00 in0.0 mm 0.00 in0.0 mm 0.00 in0.0 mm